createdAt,value
2022-08-03T00:00:00.438Z,5.00
2022-08-03T00:01:00.317Z,5.00
2022-08-03T00:02:00.310Z,5.30
2022-08-03T00:03:00.358Z,5.30
2022-08-03T00:04:00.310Z,5.30
2022-08-03T00:05:00.300Z,5.30
2022-08-03T00:06:04.185Z,5.30
2022-08-03T00:07:00.288Z,5.30
2022-08-03T00:08:00.343Z,5.30
2022-08-03T00:09:00.679Z,5.30
2022-08-03T00:10:00.371Z,5.30
2022-08-03T00:11:00.600Z,5.30
2022-08-03T00:12:00.259Z,5.30
2022-08-03T00:13:00.317Z,5.30
2022-08-03T00:14:00.319Z,5.30
2022-08-03T00:15:00.321Z,5.30
2022-08-03T00:16:00.372Z,5.30
2022-08-03T00:17:00.478Z,5.30
2022-08-03T00:18:00.323Z,5.30
2022-08-03T00:19:00.843Z,5.30
2022-08-03T00:20:00.278Z,5.30
2022-08-03T00:21:00.791Z,5.30
2022-08-03T00:22:00.278Z,5.30
2022-08-03T00:23:00.378Z,5.30
2022-08-03T00:24:00.376Z,5.30
2022-08-03T00:25:00.331Z,5.30
2022-08-03T00:26:00.377Z,5.30
2022-08-03T00:27:00.285Z,5.30
2022-08-03T00:28:00.623Z,5.30
2022-08-03T00:29:00.323Z,5.30
2022-08-03T00:30:00.669Z,5.30
2022-08-03T00:31:00.581Z,5.30
2022-08-03T00:32:00.698Z,4.70
2022-08-03T00:33:00.643Z,4.70
2022-08-03T00:34:03.291Z,4.70
2022-08-03T00:35:00.990Z,4.70
2022-08-03T00:36:00.268Z,4.70
2022-08-03T00:37:00.288Z,4.70
2022-08-03T00:38:00.280Z,4.70
2022-08-03T00:39:00.271Z,4.70
2022-08-03T00:40:00.340Z,4.70
2022-08-03T00:41:00.331Z,4.70
2022-08-03T00:42:02.235Z,4.70
2022-08-03T00:43:01.225Z,4.70
2022-08-03T00:44:00.278Z,4.70
2022-08-03T00:45:00.362Z,4.70
2022-08-03T00:46:00.296Z,4.70
2022-08-03T00:47:00.378Z,4.70
2022-08-03T00:48:00.707Z,4.70
2022-08-03T00:49:01.179Z,4.70
2022-08-03T00:50:00.279Z,4.70
2022-08-03T00:52:00.744Z,4.70
2022-08-03T00:53:01.251Z,4.70
2022-08-03T00:54:00.339Z,4.70
2022-08-03T00:55:01.074Z,4.70
2022-08-03T00:56:00.523Z,4.70
2022-08-03T00:57:00.706Z,4.70
2022-08-03T00:58:01.361Z,4.70
2022-08-03T00:59:00.790Z,4.70
2022-08-03T01:00:00.592Z,4.70
2022-08-03T01:01:01.656Z,4.70
2022-08-03T01:02:00.280Z,4.50
2022-08-03T01:03:00.732Z,4.50
2022-08-03T01:04:00.301Z,4.50
2022-08-03T01:05:00.421Z,4.50
2022-08-03T01:06:10.179Z,4.50
2022-08-03T01:07:00.261Z,4.50
2022-08-03T01:08:10.205Z,4.50
2022-08-03T01:09:10.192Z,4.50
2022-08-03T01:10:01.301Z,4.50
2022-08-03T01:11:07.722Z,4.50
2022-08-03T01:12:05.004Z,4.50
2022-08-03T01:13:07.795Z,4.50
2022-08-03T01:14:18.084Z,4.50
2022-08-03T01:15:10.200Z,4.50
2022-08-03T01:16:03.658Z,4.50
2022-08-03T01:17:04.007Z,4.50
2022-08-03T01:18:10.176Z,4.50
2022-08-03T01:19:03.536Z,4.50
2022-08-03T01:20:03.076Z,4.50
2022-08-03T01:21:02.743Z,4.50
2022-08-03T01:22:07.696Z,4.50
2022-08-03T01:23:10.173Z,4.50
2022-08-03T01:24:04.318Z,4.50
2022-08-03T01:25:10.194Z,4.50
2022-08-03T01:26:01.277Z,4.50
2022-08-03T01:27:03.858Z,4.50
2022-08-03T01:28:10.181Z,4.50
2022-08-03T01:29:00.295Z,4.50
2022-08-03T01:30:08.291Z,4.50
2022-08-03T01:31:02.843Z,4.50
2022-08-03T01:32:58.120Z,4.20
2022-08-03T01:33:03.548Z,4.20
2022-08-03T01:34:01.977Z,4.20
2022-08-03T01:35:02.772Z,4.20
2022-08-03T01:36:02.144Z,4.20
2022-08-03T01:37:02.235Z,4.20
2022-08-03T01:38:03.735Z,4.20
2022-08-03T01:39:01.415Z,4.20
2022-08-03T01:40:01.349Z,4.20
2022-08-03T01:41:04.775Z,4.20
2022-08-03T01:42:02.889Z,4.20
2022-08-03T01:43:02.046Z,4.20
2022-08-03T01:44:29.358Z,4.20
2022-08-03T01:45:00.890Z,4.20
2022-08-03T01:46:02.093Z,4.20
2022-08-03T01:47:01.352Z,4.20
2022-08-03T01:48:01.407Z,4.20
2022-08-03T01:49:09.152Z,4.20
2022-08-03T01:50:01.173Z,4.20
2022-08-03T01:51:00.838Z,4.20
2022-08-03T01:52:03.998Z,4.20
2022-08-03T01:53:00.890Z,4.20
2022-08-03T01:54:00.549Z,4.20
2022-08-03T01:55:02.021Z,4.20
2022-08-03T01:56:01.491Z,4.20
2022-08-03T01:57:01.504Z,4.20
2022-08-03T01:58:05.215Z,4.20
2022-08-03T01:59:01.517Z,4.20
2022-08-03T02:00:00.610Z,4.20
2022-08-03T02:01:01.371Z,4.20
2022-08-03T02:02:28.535Z,3.40
2022-08-03T02:03:00.997Z,3.40
2022-08-03T02:04:01.749Z,3.40
2022-08-03T02:05:01.798Z,3.40
2022-08-03T02:07:02.231Z,3.40
2022-08-03T02:07:03.303Z,3.40
2022-08-03T02:08:00.969Z,3.40
2022-08-03T02:09:01.161Z,3.40
2022-08-03T02:10:01.668Z,3.40
2022-08-03T02:11:01.163Z,3.40
2022-08-03T02:12:00.495Z,3.40
2022-08-03T02:13:00.984Z,3.40
2022-08-03T02:14:02.846Z,3.40
2022-08-03T02:15:00.834Z,3.40
2022-08-03T02:16:01.693Z,3.40
2022-08-03T02:17:00.865Z,3.40
2022-08-03T02:18:02.187Z,3.40
2022-08-03T02:19:01.862Z,3.40
2022-08-03T02:20:01.281Z,3.40
2022-08-03T02:21:00.902Z,3.40
2022-08-03T02:22:01.936Z,3.40
2022-08-03T02:23:00.301Z,3.40
2022-08-03T02:24:00.474Z,3.40
2022-08-03T02:25:00.534Z,3.40
2022-08-03T02:26:03.538Z,3.40
2022-08-03T02:27:02.512Z,3.40
2022-08-03T02:28:05.312Z,3.40
2022-08-03T02:29:02.209Z,3.40
2022-08-03T02:30:04.379Z,3.40
2022-08-03T02:31:03.462Z,3.40
2022-08-03T02:32:01.281Z,2.90
2022-08-03T02:33:00.999Z,2.90
2022-08-03T02:34:02.052Z,2.90
2022-08-03T02:35:01.345Z,2.90
2022-08-03T02:36:01.662Z,2.90
2022-08-03T02:37:01.369Z,2.90
2022-08-03T02:38:01.853Z,2.90
2022-08-03T02:39:00.705Z,2.90
2022-08-03T02:40:01.266Z,2.90
2022-08-03T02:41:03.787Z,2.90
2022-08-03T02:42:00.388Z,2.90
2022-08-03T02:43:03.117Z,2.90
2022-08-03T02:44:06.892Z,2.90
2022-08-03T02:45:01.883Z,2.90
2022-08-03T02:46:00.479Z,2.90
2022-08-03T02:47:02.464Z,2.90
2022-08-03T02:48:02.641Z,2.90
2022-08-03T02:49:50.821Z,2.90
2022-08-03T02:50:01.410Z,2.90
2022-08-03T02:51:01.832Z,2.90
2022-08-03T02:52:01.311Z,2.90
2022-08-03T02:53:00.871Z,2.90
2022-08-03T02:54:01.840Z,2.90
2022-08-03T02:55:02.173Z,2.90
2022-08-03T02:56:02.379Z,2.90
2022-08-03T02:57:01.107Z,2.90
2022-08-03T02:58:01.814Z,2.90
2022-08-03T02:59:00.678Z,2.90
2022-08-03T03:00:00.682Z,2.90
2022-08-03T03:01:00.840Z,2.90
2022-08-03T03:02:01.188Z,2.80
2022-08-03T03:03:01.523Z,2.80
2022-08-03T03:04:01.113Z,2.80
2022-08-03T03:05:52.409Z,2.80
2022-08-03T03:06:00.900Z,2.80
2022-08-03T03:07:01.872Z,2.80
2022-08-03T03:08:00.839Z,2.80
2022-08-03T03:09:00.526Z,2.80
2022-08-03T03:10:01.022Z,2.80
2022-08-03T03:11:00.706Z,2.80
2022-08-03T03:12:01.624Z,2.80
2022-08-03T03:13:01.110Z,2.80
2022-08-03T03:14:00.940Z,2.80
2022-08-03T03:15:00.264Z,2.80
2022-08-03T03:16:01.558Z,2.80
2022-08-03T03:17:01.308Z,2.80
2022-08-03T03:18:00.450Z,2.80
2022-08-03T03:19:00.819Z,2.80
2022-08-03T03:20:00.656Z,2.80
2022-08-03T03:21:01.665Z,2.80
2022-08-03T03:22:01.260Z,2.80
2022-08-03T03:23:01.355Z,2.80
2022-08-03T03:24:01.404Z,2.80
2022-08-03T03:25:00.892Z,2.80
2022-08-03T03:26:00.825Z,2.80
2022-08-03T03:27:00.673Z,2.80
2022-08-03T03:28:01.437Z,2.80
2022-08-03T03:29:01.194Z,2.80
2022-08-03T03:30:00.986Z,2.80
2022-08-03T03:31:00.370Z,2.80
2022-08-03T03:32:00.651Z,2.80
2022-08-03T03:33:00.635Z,2.80
2022-08-03T03:34:00.533Z,2.80
2022-08-03T03:35:00.717Z,2.80
2022-08-03T03:36:00.733Z,2.80
2022-08-03T03:37:00.442Z,2.80
2022-08-03T03:38:00.375Z,2.80
2022-08-03T03:39:00.416Z,2.80
2022-08-03T03:40:00.432Z,2.80
2022-08-03T03:41:00.681Z,2.80
2022-08-03T03:42:00.783Z,2.80
2022-08-03T03:43:00.656Z,2.80
2022-08-03T03:44:00.385Z,2.80
2022-08-03T03:45:04.114Z,2.80
2022-08-03T03:46:00.831Z,2.80
2022-08-03T03:47:00.430Z,2.80
2022-08-03T03:48:00.949Z,2.80
2022-08-03T03:49:00.469Z,2.80
2022-08-03T03:50:01.349Z,2.80
2022-08-03T03:51:00.857Z,2.80
2022-08-03T03:52:00.381Z,2.80
2022-08-03T03:53:01.029Z,2.80
2022-08-03T03:54:01.383Z,2.80
2022-08-03T03:55:01.542Z,2.80
2022-08-03T03:56:02.358Z,2.80
2022-08-03T03:57:00.517Z,2.80
2022-08-03T03:58:00.384Z,2.80
2022-08-03T03:59:00.367Z,2.80
2022-08-03T04:00:00.691Z,2.80
2022-08-03T04:01:00.577Z,2.80
2022-08-03T04:02:00.541Z,2.70
2022-08-03T04:03:00.434Z,2.70
2022-08-03T04:04:00.406Z,2.70
2022-08-03T04:05:00.410Z,2.70
2022-08-03T04:06:00.360Z,2.70
2022-08-03T04:07:00.436Z,2.70
2022-08-03T04:08:02.852Z,2.70
2022-08-03T04:09:00.398Z,2.70
2022-08-03T04:10:14.048Z,2.70
2022-08-03T04:11:05.928Z,2.70
2022-08-03T04:12:00.616Z,2.70
2022-08-03T04:13:01.410Z,2.70
2022-08-03T04:14:01.777Z,2.70
2022-08-03T04:15:02.288Z,2.70
2022-08-03T04:16:00.985Z,2.70
2022-08-03T04:17:02.230Z,2.70
2022-08-03T04:18:01.730Z,2.70
2022-08-03T04:19:02.011Z,2.70
2022-08-03T04:20:02.170Z,2.70
2022-08-03T04:21:01.589Z,2.70
2022-08-03T04:22:03.682Z,2.70
2022-08-03T04:23:01.578Z,2.70
2022-08-03T04:24:02.415Z,2.70
2022-08-03T04:25:01.975Z,2.70
2022-08-03T04:26:01.618Z,2.70
2022-08-03T04:27:02.042Z,2.70
2022-08-03T04:28:07.703Z,2.70
2022-08-03T04:29:01.557Z,2.70
2022-08-03T04:30:02.086Z,2.70
2022-08-03T04:31:02.347Z,2.70
2022-08-03T04:32:00.386Z,3.10
2022-08-03T04:33:01.271Z,3.10
2022-08-03T04:34:00.883Z,3.10
2022-08-03T04:35:00.466Z,3.10
2022-08-03T04:36:03.839Z,3.10
2022-08-03T04:37:02.150Z,3.10
2022-08-03T04:38:04.046Z,3.10
2022-08-03T04:39:00.436Z,3.10
2022-08-03T04:40:01.657Z,3.10
2022-08-03T04:41:00.566Z,3.10
2022-08-03T04:42:07.569Z,3.10
2022-08-03T04:43:01.178Z,3.10
2022-08-03T04:44:01.116Z,3.10
2022-08-03T04:45:02.083Z,3.10
2022-08-03T04:46:00.891Z,3.10
2022-08-03T04:47:00.730Z,3.10
2022-08-03T04:48:02.074Z,3.10
2022-08-03T04:49:00.680Z,3.10
2022-08-03T04:50:01.300Z,3.10
2022-08-03T04:51:00.560Z,3.10
2022-08-03T04:52:00.570Z,3.10
2022-08-03T04:53:00.506Z,3.10
2022-08-03T04:54:00.467Z,3.10
2022-08-03T04:55:00.571Z,3.10
2022-08-03T04:56:03.927Z,3.10
2022-08-03T04:57:00.387Z,3.10
2022-08-03T04:58:01.132Z,3.10
2022-08-03T04:59:00.444Z,3.10
2022-08-03T05:00:03.366Z,3.10
2022-08-03T05:01:00.421Z,3.10
2022-08-03T05:02:00.526Z,2.70
2022-08-03T05:03:00.433Z,2.70
2022-08-03T05:04:00.423Z,2.70
2022-08-03T05:05:00.389Z,2.70
2022-08-03T05:06:09.757Z,2.70
2022-08-03T05:07:00.403Z,2.70
2022-08-03T05:08:00.827Z,2.70
2022-08-03T05:09:00.433Z,2.70
2022-08-03T05:10:02.924Z,2.70
2022-08-03T05:11:00.401Z,2.70
2022-08-03T05:12:00.412Z,2.70
2022-08-03T05:13:00.313Z,2.70
2022-08-03T05:14:00.321Z,2.70
2022-08-03T05:15:00.631Z,2.70
2022-08-03T05:16:00.335Z,2.70
2022-08-03T05:17:00.454Z,2.70
2022-08-03T05:18:00.294Z,2.70
2022-08-03T05:19:00.292Z,2.70
2022-08-03T05:20:00.322Z,2.70
2022-08-03T05:21:00.609Z,2.70
2022-08-03T05:22:00.346Z,2.70
2022-08-03T05:23:00.348Z,2.70
2022-08-03T05:24:00.347Z,2.70
2022-08-03T05:25:00.610Z,2.70
2022-08-03T05:26:00.431Z,2.70
2022-08-03T05:27:00.314Z,2.70
2022-08-03T05:28:00.360Z,2.70
2022-08-03T05:29:00.303Z,2.70
2022-08-03T05:30:31.306Z,2.70
2022-08-03T05:31:00.263Z,2.70
2022-08-03T05:32:01.871Z,3.10
2022-08-03T05:33:00.959Z,3.10
2022-08-03T05:34:00.558Z,3.10
2022-08-03T05:35:00.277Z,3.10
2022-08-03T05:36:03.213Z,3.10
2022-08-03T05:37:00.284Z,3.10
2022-08-03T05:38:01.146Z,3.10
2022-08-03T05:39:02.818Z,3.10
2022-08-03T05:40:00.341Z,3.10
2022-08-03T05:41:22.294Z,3.10
2022-08-03T05:42:00.300Z,3.10
2022-08-03T05:43:00.654Z,3.10
2022-08-03T05:44:00.264Z,3.10
2022-08-03T05:45:02.688Z,3.10
2022-08-03T05:46:12.363Z,3.10
2022-08-03T05:47:00.282Z,3.10
2022-08-03T05:48:00.334Z,3.10
2022-08-03T05:49:00.405Z,3.10
2022-08-03T05:50:00.313Z,3.10
2022-08-03T05:51:00.271Z,3.10
2022-08-03T05:52:11.848Z,3.10
2022-08-03T05:53:00.278Z,3.10
2022-08-03T05:54:00.275Z,3.10
2022-08-03T05:55:00.263Z,3.10
2022-08-03T05:56:03.627Z,3.10
2022-08-03T05:57:00.276Z,3.10
2022-08-03T05:58:00.721Z,3.10
2022-08-03T05:59:16.290Z,3.10
2022-08-03T06:01:00.277Z,3.10
2022-08-03T06:02:00.310Z,2.80
2022-08-03T06:32:00.342Z,2.00
2022-08-03T06:33:00.372Z,2.00
2022-08-03T06:34:32.990Z,2.00
2022-08-03T06:35:00.367Z,2.00
2022-08-03T06:36:00.385Z,2.00
2022-08-03T06:37:02.340Z,2.00
2022-08-03T06:38:00.319Z,2.00
2022-08-03T06:39:00.429Z,2.00
2022-08-03T06:40:00.309Z,2.00
2022-08-03T06:41:00.295Z,2.00
2022-08-03T06:42:00.353Z,2.00
2022-08-03T06:43:01.315Z,2.00
2022-08-03T06:44:02.958Z,2.00
2022-08-03T06:45:00.308Z,2.00
2022-08-03T06:46:00.300Z,2.00
2022-08-03T06:47:00.313Z,2.00
2022-08-03T06:48:02.881Z,2.00
2022-08-03T06:49:00.404Z,2.00
2022-08-03T06:50:17.141Z,2.00
2022-08-03T06:51:00.305Z,2.00
2022-08-03T06:52:04.030Z,2.00
2022-08-03T06:53:00.409Z,2.00
2022-08-03T06:54:00.335Z,2.00
2022-08-03T06:55:00.334Z,2.00
2022-08-03T06:56:00.311Z,2.00
2022-08-03T06:57:00.315Z,2.00
2022-08-03T06:58:03.305Z,2.00
2022-08-03T06:59:00.271Z,2.00
2022-08-03T07:00:09.352Z,2.00
2022-08-03T07:01:00.344Z,2.00
2022-08-03T07:02:00.270Z,1.80
2022-08-03T07:03:00.305Z,1.80
2022-08-03T07:04:00.285Z,1.80
2022-08-03T07:05:00.272Z,1.80
2022-08-03T07:06:00.294Z,1.80
2022-08-03T07:07:00.510Z,1.80
2022-08-03T07:08:00.277Z,1.80
2022-08-03T07:09:00.325Z,1.80
2022-08-03T07:10:00.464Z,1.80
2022-08-03T07:11:00.458Z,1.80
2022-08-03T07:12:00.302Z,1.80
2022-08-03T07:13:00.257Z,1.80
2022-08-03T07:14:00.311Z,1.80
2022-08-03T07:15:02.249Z,1.80
2022-08-03T07:16:00.312Z,1.80
2022-08-03T07:17:00.262Z,1.80
2022-08-03T07:18:00.330Z,1.80
2022-08-03T07:19:00.264Z,1.80
2022-08-03T07:20:00.934Z,1.80
2022-08-03T07:21:00.373Z,1.80
2022-08-03T07:22:02.262Z,1.80
2022-08-03T07:23:00.253Z,1.80
2022-08-03T07:24:00.258Z,1.80
2022-08-03T07:25:00.403Z,1.80
2022-08-03T07:26:00.308Z,1.80
2022-08-03T07:27:00.279Z,1.80
2022-08-03T07:28:00.270Z,1.80
2022-08-03T07:29:00.267Z,1.80
2022-08-03T07:30:00.357Z,1.80
2022-08-03T07:31:00.294Z,1.80
2022-08-03T07:32:00.809Z,1.80
2022-08-03T07:33:00.367Z,1.80
2022-08-03T07:34:00.295Z,1.80
2022-08-03T07:35:01.346Z,1.80
2022-08-03T07:36:00.332Z,1.80
2022-08-03T07:37:00.496Z,1.80
2022-08-03T07:38:00.260Z,1.80
2022-08-03T07:39:00.267Z,1.80
2022-08-03T07:40:00.905Z,1.80
2022-08-03T07:41:00.275Z,1.80
2022-08-03T07:42:00.286Z,1.80
2022-08-03T07:43:00.276Z,1.80
2022-08-03T07:44:00.264Z,1.80
2022-08-03T07:45:00.341Z,1.80
2022-08-03T07:46:00.259Z,1.80
2022-08-03T07:47:03.250Z,1.80
2022-08-03T07:48:00.282Z,1.80
2022-08-03T07:49:00.331Z,1.80
2022-08-03T07:50:00.405Z,1.80
2022-08-03T07:51:00.266Z,1.80
2022-08-03T07:52:00.268Z,1.80
2022-08-03T07:53:00.264Z,1.80
2022-08-03T07:54:00.479Z,1.80
2022-08-03T07:55:00.309Z,1.80
2022-08-03T07:56:00.283Z,1.80
2022-08-03T07:57:00.268Z,1.80
2022-08-03T07:58:01.346Z,1.80
2022-08-03T07:59:00.308Z,1.80
2022-08-03T08:00:02.169Z,1.80
2022-08-03T08:01:00.375Z,1.80
2022-08-03T08:02:00.275Z,1.60
2022-08-03T08:03:00.839Z,1.60
2022-08-03T08:04:00.263Z,1.60
2022-08-03T08:05:05.339Z,1.60
2022-08-03T08:06:00.268Z,1.60
2022-08-03T08:07:00.261Z,1.60
2022-08-03T08:08:00.781Z,1.60
2022-08-03T08:09:00.344Z,1.60
2022-08-03T08:10:00.288Z,1.60
2022-08-03T08:11:00.277Z,1.60
2022-08-03T08:12:00.341Z,1.60
2022-08-03T08:13:00.712Z,1.60
2022-08-03T08:14:00.292Z,1.60
2022-08-03T08:15:00.842Z,1.60
2022-08-03T08:16:00.259Z,1.60
2022-08-03T08:17:04.363Z,1.60
2022-08-03T08:18:00.502Z,1.60
2022-08-03T08:19:00.317Z,1.60
2022-08-03T08:20:00.281Z,1.60
2022-08-03T08:21:00.311Z,1.60
2022-08-03T08:22:02.225Z,1.60
2022-08-03T08:23:01.864Z,1.60
2022-08-03T08:24:00.263Z,1.60
2022-08-03T08:25:01.363Z,1.60
2022-08-03T08:26:00.417Z,1.60
2022-08-03T08:27:00.262Z,1.60
2022-08-03T08:28:31.034Z,1.60
2022-08-03T08:29:00.309Z,1.60
2022-08-03T08:30:10.182Z,1.60
2022-08-03T08:31:00.584Z,1.60
2022-08-03T08:32:00.270Z,1.30
2022-08-03T08:33:00.283Z,1.30
2022-08-03T08:34:03.926Z,1.30
2022-08-03T08:35:00.280Z,1.30
2022-08-03T08:36:00.428Z,1.30
2022-08-03T08:37:00.292Z,1.30
2022-08-03T08:38:00.292Z,1.30
2022-08-03T08:39:00.487Z,1.30
2022-08-03T08:40:00.772Z,1.30
2022-08-03T08:41:00.372Z,1.30
2022-08-03T08:42:00.317Z,1.30
2022-08-03T08:43:00.904Z,1.30
2022-08-03T08:44:01.113Z,1.30
2022-08-03T08:45:00.260Z,1.30
2022-08-03T08:46:00.851Z,1.30
2022-08-03T08:47:01.690Z,1.30
2022-08-03T08:48:05.436Z,1.30
2022-08-03T08:49:00.458Z,1.30
2022-08-03T08:50:09.744Z,1.30
2022-08-03T08:51:00.743Z,1.30
2022-08-03T08:52:02.256Z,1.30
2022-08-03T08:53:01.494Z,1.30
2022-08-03T08:54:00.782Z,1.30
2022-08-03T08:55:02.607Z,1.30
2022-08-03T08:56:01.535Z,1.30
2022-08-03T08:57:01.419Z,1.30
2022-08-03T08:58:03.859Z,1.30
2022-08-03T08:59:00.586Z,1.30
2022-08-03T09:00:00.561Z,1.30
2022-08-03T09:01:00.374Z,1.30
2022-08-03T09:02:00.310Z,1.30
2022-08-03T09:03:00.721Z,1.30
2022-08-03T09:04:01.226Z,1.30
2022-08-03T09:05:05.326Z,1.30
2022-08-03T09:06:02.438Z,1.30
2022-08-03T09:07:29.060Z,1.30
2022-08-03T09:08:00.419Z,1.30
2022-08-03T09:09:00.423Z,1.30
2022-08-03T09:10:10.582Z,1.30
2022-08-03T09:11:00.369Z,1.30
2022-08-03T09:12:20.005Z,1.30
2022-08-03T09:13:00.305Z,1.30
2022-08-03T09:14:00.274Z,1.30
2022-08-03T09:15:16.948Z,1.30
2022-08-03T09:16:08.564Z,1.30
2022-08-03T09:17:01.243Z,1.30
2022-08-03T09:18:01.830Z,1.30
2022-08-03T09:19:10.173Z,1.30
2022-08-03T09:20:05.335Z,1.30
2022-08-03T09:21:29.723Z,1.30
2022-08-03T09:22:09.055Z,1.30
2022-08-03T09:23:09.702Z,1.30
2022-08-03T09:24:03.209Z,1.30
2022-08-03T09:25:23.443Z,1.30
2022-08-03T09:26:00.340Z,1.30
2022-08-03T09:27:00.376Z,1.30
2022-08-03T09:28:03.814Z,1.30
2022-08-03T09:29:04.057Z,1.30
2022-08-03T09:30:00.287Z,1.30
2022-08-03T09:31:00.273Z,1.30
2022-08-03T09:32:01.503Z,0.90
2022-08-03T09:33:01.228Z,0.90
2022-08-03T09:34:01.465Z,0.90
2022-08-03T09:35:02.950Z,0.90
2022-08-03T09:36:00.282Z,0.90
2022-08-03T09:37:00.285Z,0.90
2022-08-03T09:38:13.787Z,0.90
2022-08-03T09:39:01.268Z,0.90
2022-08-03T09:40:00.301Z,0.90
2022-08-03T09:41:00.976Z,0.90
2022-08-03T09:42:04.412Z,0.90
2022-08-03T09:43:00.301Z,0.90
2022-08-03T09:44:00.279Z,0.90
2022-08-03T09:45:00.278Z,0.90
2022-08-03T09:46:02.452Z,0.90
2022-08-03T09:47:00.271Z,0.90
2022-08-03T09:48:10.183Z,0.90
2022-08-03T09:49:11.550Z,0.90
2022-08-03T09:50:01.859Z,0.90
2022-08-03T09:51:13.478Z,0.90
2022-08-03T09:52:30.233Z,0.90
2022-08-03T09:53:00.882Z,0.90
2022-08-03T09:54:00.596Z,0.90
2022-08-03T09:55:01.129Z,0.90
2022-08-03T09:56:34.962Z,0.90
2022-08-03T09:57:01.192Z,0.90
2022-08-03T09:58:04.669Z,0.90
2022-08-03T09:59:00.311Z,0.90
2022-08-03T10:00:08.993Z,0.90
2022-08-03T10:01:01.470Z,0.90
2022-08-03T10:02:00.348Z,1.20
2022-08-03T10:03:03.637Z,1.20
2022-08-03T10:04:03.821Z,1.20
2022-08-03T10:05:00.378Z,1.20
2022-08-03T10:06:10.182Z,1.20
2022-08-03T10:07:05.601Z,1.20
2022-08-03T10:08:10.188Z,1.20
2022-08-03T10:09:04.497Z,1.20
2022-08-03T10:10:29.116Z,1.20
2022-08-03T10:11:00.262Z,1.20
2022-08-03T10:12:08.587Z,1.20
2022-08-03T10:13:00.377Z,1.20
2022-08-03T10:14:02.861Z,1.20
2022-08-03T10:15:00.603Z,1.20
2022-08-03T10:16:23.556Z,1.20
2022-08-03T10:17:00.319Z,1.20
2022-08-03T10:18:00.312Z,1.20
2022-08-03T10:19:00.637Z,1.20
2022-08-03T10:20:00.310Z,1.20
2022-08-03T10:21:02.949Z,1.20
2022-08-03T10:22:02.588Z,1.20
2022-08-03T10:23:00.607Z,1.20
2022-08-03T10:24:02.592Z,1.20
2022-08-03T10:25:10.185Z,1.20
2022-08-03T10:26:01.920Z,1.20
2022-08-03T10:27:01.532Z,1.20
2022-08-03T10:28:01.616Z,1.20
2022-08-03T10:29:02.449Z,1.20
2022-08-03T10:30:01.132Z,1.20
2022-08-03T10:31:00.721Z,1.20
2022-08-03T10:32:03.178Z,0.90
2022-08-03T10:33:02.249Z,0.90
2022-08-03T10:34:01.019Z,0.90
2022-08-03T10:35:21.004Z,0.90
2022-08-03T10:36:01.195Z,0.90
2022-08-03T10:37:02.348Z,0.90
2022-08-03T10:38:02.432Z,0.90
2022-08-03T10:39:01.641Z,0.90
2022-08-03T10:40:01.434Z,0.90
2022-08-03T10:41:00.835Z,0.90
2022-08-03T10:42:02.614Z,0.90
2022-08-03T10:43:06.896Z,0.90
2022-08-03T10:44:10.167Z,0.90
2022-08-03T10:45:03.507Z,0.90
2022-08-03T10:46:02.247Z,0.90
2022-08-03T10:47:00.324Z,0.90
2022-08-03T10:48:00.681Z,0.90
2022-08-03T10:49:00.605Z,0.90
2022-08-03T10:50:00.946Z,0.90
2022-08-03T10:51:00.731Z,0.90
2022-08-03T10:52:00.359Z,0.90
2022-08-03T10:53:03.985Z,0.90
2022-08-03T10:54:01.871Z,0.90
2022-08-03T10:55:00.304Z,0.90
2022-08-03T10:56:00.278Z,0.90
2022-08-03T10:57:01.106Z,0.90
2022-08-03T10:58:00.271Z,0.90
2022-08-03T10:59:00.307Z,0.90
2022-08-03T11:00:00.325Z,0.90
2022-08-03T11:01:00.321Z,0.90
2022-08-03T11:02:01.348Z,0.40
2022-08-03T11:03:00.241Z,0.40
2022-08-03T11:04:00.240Z,0.40
2022-08-03T11:05:10.186Z,0.40
2022-08-03T11:06:10.166Z,0.40
2022-08-03T11:07:10.160Z,0.40
2022-08-03T11:08:10.165Z,0.40
2022-08-03T11:09:10.158Z,0.40
2022-08-03T11:10:00.270Z,0.40
2022-08-03T11:11:01.957Z,0.40
2022-08-03T11:12:10.182Z,0.40
2022-08-03T11:13:08.230Z,0.40
2022-08-03T11:14:10.167Z,0.40
2022-08-03T11:15:03.291Z,0.40
2022-08-03T11:16:02.375Z,0.40
2022-08-03T11:17:07.621Z,0.40
2022-08-03T11:18:07.656Z,0.40
2022-08-03T11:19:03.231Z,0.40
2022-08-03T11:20:00.311Z,0.40
2022-08-03T11:21:00.355Z,0.40
2022-08-03T11:22:00.291Z,0.40
2022-08-03T11:23:00.318Z,0.40
2022-08-03T11:24:02.799Z,0.40
2022-08-03T11:25:00.426Z,0.40
2022-08-03T11:26:07.600Z,0.40
2022-08-03T11:27:10.157Z,0.40
2022-08-03T11:28:10.177Z,0.40
2022-08-03T11:29:10.160Z,0.40
2022-08-03T11:30:00.245Z,0.40
2022-08-03T11:31:18.411Z,0.40
2022-08-03T11:32:00.315Z,0.60
2022-08-03T11:33:00.348Z,0.60
2022-08-03T11:34:07.616Z,0.60
2022-08-03T11:35:10.180Z,0.60
2022-08-03T11:36:00.738Z,0.60
2022-08-03T11:37:10.162Z,0.60
2022-08-03T11:38:04.720Z,0.60
2022-08-03T11:39:10.175Z,0.60
2022-08-03T11:40:02.773Z,0.60
2022-08-03T11:41:00.276Z,0.60
2022-08-03T11:42:10.164Z,0.60
2022-08-03T11:43:00.630Z,0.60
2022-08-03T11:44:00.327Z,0.60
2022-08-03T11:45:00.393Z,0.60
2022-08-03T11:46:01.300Z,0.60
2022-08-03T11:47:00.365Z,0.60
2022-08-03T11:48:02.369Z,0.60
2022-08-03T11:49:07.729Z,0.60
2022-08-03T11:50:00.469Z,0.60
2022-08-03T11:51:02.168Z,0.60
2022-08-03T11:52:00.289Z,0.60
2022-08-03T11:53:00.311Z,0.60
2022-08-03T11:54:02.442Z,0.60
2022-08-03T11:55:00.745Z,0.60
2022-08-03T11:56:01.478Z,0.60
2022-08-03T11:57:00.309Z,0.60
2022-08-03T11:59:17.419Z,0.60
2022-08-03T11:59:20.153Z,0.60
2022-08-03T12:00:00.363Z,0.60
2022-08-03T12:01:04.278Z,0.60
2022-08-03T12:02:10.176Z,1.00
2022-08-03T12:03:01.319Z,1.00
2022-08-03T12:04:02.442Z,1.00
2022-08-03T12:05:00.282Z,1.00
2022-08-03T12:06:00.268Z,1.00
2022-08-03T12:07:00.408Z,1.00
2022-08-03T12:08:04.071Z,1.00
2022-08-03T12:09:00.250Z,1.00
2022-08-03T12:10:10.162Z,1.00
2022-08-03T12:11:01.981Z,1.00
2022-08-03T12:12:01.261Z,1.00
2022-08-03T12:13:00.977Z,1.00
2022-08-03T12:14:46.270Z,1.00
2022-08-03T12:15:01.138Z,1.00
2022-08-03T12:16:01.097Z,1.00
2022-08-03T12:17:00.257Z,1.00
2022-08-03T12:18:01.250Z,1.00
2022-08-03T12:19:01.372Z,1.00
2022-08-03T12:20:00.473Z,1.00
2022-08-03T12:21:08.239Z,1.00
2022-08-03T12:22:00.272Z,1.00
2022-08-03T12:23:02.367Z,1.00
2022-08-03T12:24:01.941Z,1.00
2022-08-03T12:25:00.510Z,1.00
2022-08-03T12:26:01.436Z,1.00
2022-08-03T12:27:00.370Z,1.00
2022-08-03T12:28:30.418Z,1.00
2022-08-03T12:29:00.260Z,1.00
2022-08-03T12:30:00.927Z,1.00
2022-08-03T12:31:02.059Z,1.00
2022-08-03T12:32:00.332Z,1.00
2022-08-03T12:33:10.175Z,1.00
2022-08-03T12:34:01.355Z,1.00
2022-08-03T12:35:00.507Z,1.00
2022-08-03T12:36:03.869Z,1.00
2022-08-03T12:37:03.982Z,1.00
2022-08-03T12:38:00.418Z,1.00
2022-08-03T12:39:01.556Z,1.00
2022-08-03T12:40:02.698Z,1.00
2022-08-03T12:41:01.477Z,1.00
2022-08-03T12:42:00.268Z,1.00
2022-08-03T12:43:00.404Z,1.00
2022-08-03T12:44:01.022Z,1.00
2022-08-03T12:45:10.190Z,1.00
2022-08-03T12:46:08.552Z,1.00
2022-08-03T12:47:01.121Z,1.00
2022-08-03T12:48:01.102Z,1.00
2022-08-03T12:49:09.081Z,1.00
2022-08-03T12:50:00.295Z,1.00
2022-08-03T12:51:08.340Z,1.00
2022-08-03T12:52:05.305Z,1.00
2022-08-03T12:53:01.355Z,1.00
2022-08-03T12:54:00.773Z,1.00
2022-08-03T12:55:00.439Z,1.00
2022-08-03T12:56:05.625Z,1.00
2022-08-03T12:57:01.383Z,1.00
2022-08-03T12:58:00.932Z,1.00
2022-08-03T12:59:10.174Z,1.00
2022-08-03T13:00:21.160Z,1.00
2022-08-03T13:01:00.996Z,1.00
2022-08-03T13:02:00.652Z,1.30
2022-08-03T13:03:38.338Z,1.30
2022-08-03T13:04:00.315Z,1.30
2022-08-03T13:05:08.891Z,1.30
2022-08-03T13:06:00.285Z,1.30
2022-08-03T13:07:03.333Z,1.30
2022-08-03T13:08:00.330Z,1.30
2022-08-03T13:09:02.613Z,1.30
2022-08-03T13:10:03.693Z,1.30
2022-08-03T13:11:10.183Z,1.30
2022-08-03T13:12:04.285Z,1.30
2022-08-03T13:13:00.267Z,1.30
2022-08-03T13:14:00.288Z,1.30
2022-08-03T13:15:00.339Z,1.30
2022-08-03T13:16:00.304Z,1.30
2022-08-03T13:17:00.338Z,1.30
2022-08-03T13:18:00.277Z,1.30
2022-08-03T13:19:00.296Z,1.30
2022-08-03T13:20:00.330Z,1.30
2022-08-03T13:21:00.387Z,1.30
2022-08-03T13:22:04.423Z,1.30
2022-08-03T13:23:01.070Z,1.30
2022-08-03T13:24:00.292Z,1.30
2022-08-03T13:25:01.163Z,1.30
2022-08-03T13:26:00.279Z,1.30
2022-08-03T13:27:00.468Z,1.30
2022-08-03T13:28:03.347Z,1.30
2022-08-03T13:29:00.303Z,1.30
2022-08-03T13:30:00.324Z,1.30
2022-08-03T13:31:00.325Z,1.30
2022-08-03T13:32:01.258Z,1.50
2022-08-03T13:33:00.277Z,1.50
2022-08-03T13:34:00.305Z,1.50
2022-08-03T13:35:00.598Z,1.50
2022-08-03T13:36:00.303Z,1.50
2022-08-03T13:37:09.009Z,1.50
2022-08-03T13:38:00.347Z,1.50
2022-08-03T13:39:00.265Z,1.50
2022-08-03T13:40:02.404Z,1.50
2022-08-03T13:41:00.915Z,1.50
2022-08-03T13:42:00.282Z,1.50
2022-08-03T13:43:00.321Z,1.50
2022-08-03T13:44:25.428Z,1.50
2022-08-03T13:45:00.834Z,1.50
2022-08-03T13:46:00.265Z,1.50
2022-08-03T13:47:00.267Z,1.50
2022-08-03T13:48:00.295Z,1.50
2022-08-03T13:49:00.264Z,1.50